sensor_id;sensor_type;location;lat;lon;timestamp;P1;durP1;ratioP1;P2;durP2;ratioP2
29026;SDS011;16120;48.608;9.092;2023-04-10T00:01:57;82.77;;;9.50;;
29026;SDS011;16120;48.608;9.092;2023-04-10T00:05:52;84.57;;;10.40;;
29026;SDS011;16120;48.608;9.092;2023-04-10T00:09:48;85.10;;;10.33;;
29026;SDS011;16120;48.608;9.092;2023-04-10T00:13:43;84.77;;;10.00;;
29026;SDS011;16120;48.608;9.092;2023-04-10T00:17:39;83.53;;;10.13;;
29026;SDS011;16120;48.608;9.092;2023-04-10T00:21:35;85.40;;;10.10;;
29026;SDS011;16120;48.608;9.092;2023-04-10T00:25:30;85.93;;;10.90;;
29026;SDS011;16120;48.608;9.092;2023-04-10T00:29:25;87.10;;;11.85;;
29026;SDS011;16120;48.608;9.092;2023-04-10T00:33:22;87.00;;;10.63;;
29026;SDS011;16120;48.608;9.092;2023-04-10T00:37:20;86.00;;;9.57;;
29026;SDS011;16120;48.608;9.092;2023-04-10T00:41:15;86.53;;;9.80;;
29026;SDS011;16120;48.608;9.092;2023-04-10T00:45:10;82.85;;;10.32;;
29026;SDS011;16120;48.608;9.092;2023-04-10T00:49:07;84.77;;;10.43;;
29026;SDS011;16120;48.608;9.092;2023-04-10T00:53:02;83.87;;;10.43;;
29026;SDS011;16120;48.608;9.092;2023-04-10T00:56:57;85.30;;;10.23;;
29026;SDS011;16120;48.608;9.092;2023-04-10T01:00:53;83.63;;;9.60;;
29026;SDS011;16120;48.608;9.092;2023-04-10T01:04:50;88.53;;;10.17;;
29026;SDS011;16120;48.608;9.092;2023-04-10T01:08:46;85.30;;;9.37;;
29026;SDS011;16120;48.608;9.092;2023-04-10T01:12:53;84.03;;;10.73;;
29026;SDS011;16120;48.608;9.092;2023-04-10T01:16:50;81.77;;;9.03;;
29026;SDS011;16120;48.608;9.092;2023-04-10T01:20:48;84.70;;;9.60;;
29026;SDS011;16120;48.608;9.092;2023-04-10T01:24:49;82.60;;;9.63;;
29026;SDS011;16120;48.608;9.092;2023-04-10T01:28:52;83.13;;;9.47;;
29026;SDS011;16120;48.608;9.092;2023-04-10T01:32:50;84.33;;;9.87;;
29026;SDS011;16120;48.608;9.092;2023-04-10T01:36:47;86.83;;;10.97;;
29026;SDS011;16120;48.608;9.092;2023-04-10T01:40:43;84.77;;;10.97;;
29026;SDS011;16120;48.608;9.092;2023-04-10T01:44:40;89.30;;;12.23;;
29026;SDS011;16120;48.608;9.092;2023-04-10T01:48:36;82.80;;;9.70;;
29026;SDS011;16120;48.608;9.092;2023-04-10T01:52:32;83.70;;;9.80;;
29026;SDS011;16120;48.608;9.092;2023-04-10T01:56:35;84.23;;;10.43;;
29026;SDS011;16120;48.608;9.092;2023-04-10T02:00:37;83.13;;;10.17;;
29026;SDS011;16120;48.608;9.092;2023-04-10T02:04:33;84.70;;;10.90;;
29026;SDS011;16120;48.608;9.092;2023-04-10T02:08:30;83.33;;;10.20;;
29026;SDS011;16120;48.608;9.092;2023-04-10T02:12:27;82.07;;;9.50;;
29026;SDS011;16120;48.608;9.092;2023-04-10T02:16:24;86.60;;;10.37;;
29026;SDS011;16120;48.608;9.092;2023-04-10T02:20:20;84.40;;;10.00;;
29026;SDS011;16120;48.608;9.092;2023-04-10T02:24:16;82.97;;;10.27;;
29026;SDS011;16120;48.608;9.092;2023-04-10T02:28:12;83.97;;;10.00;;
29026;SDS011;16120;48.608;9.092;2023-04-10T02:32:09;86.03;;;11.60;;
29026;SDS011;16120;48.608;9.092;2023-04-10T02:36:04;83.63;;;10.50;;
29026;SDS011;16120;48.608;9.092;2023-04-10T02:40:00;84.00;;;10.40;;
29026;SDS011;16120;48.608;9.092;2023-04-10T02:43:55;84.70;;;11.13;;
29026;SDS011;16120;48.608;9.092;2023-04-10T02:47:52;82.03;;;9.67;;
29026;SDS011;16120;48.608;9.092;2023-04-10T02:51:47;84.70;;;10.47;;
29026;SDS011;16120;48.608;9.092;2023-04-10T02:55:42;83.70;;;9.90;;
29026;SDS011;16120;48.608;9.092;2023-04-10T02:59:37;83.88;;;10.13;;
29026;SDS011;16120;48.608;9.092;2023-04-10T03:03:34;83.10;;;9.77;;
29026;SDS011;16120;48.608;9.092;2023-04-10T03:07:29;84.70;;;10.93;;
29026;SDS011;16120;48.608;9.092;2023-04-10T03:11:24;83.90;;;10.07;;
29026;SDS011;16120;48.608;9.092;2023-04-10T03:15:19;83.18;;;10.30;;
29026;SDS011;16120;48.608;9.092;2023-04-10T03:19:16;84.53;;;11.25;;
29026;SDS011;16120;48.608;9.092;2023-04-10T03:23:11;86.97;;;9.93;;
29026;SDS011;16120;48.608;9.092;2023-04-10T03:27:06;82.27;;;8.93;;
29026;SDS011;16120;48.608;9.092;2023-04-10T03:31:02;82.70;;;10.55;;
29026;SDS011;16120;48.608;9.092;2023-04-10T03:34:58;83.67;;;9.90;;
29026;SDS011;16120;48.608;9.092;2023-04-10T03:38:54;83.37;;;10.20;;
29026;SDS011;16120;48.608;9.092;2023-04-10T03:42:49;85.03;;;10.20;;
29026;SDS011;16120;48.608;9.092;2023-04-10T03:46:44;83.83;;;10.53;;
29026;SDS011;16120;48.608;9.092;2023-04-10T03:50:41;82.17;;;9.37;;
29026;SDS011;16120;48.608;9.092;2023-04-10T03:54:36;86.40;;;10.87;;
29026;SDS011;16120;48.608;9.092;2023-04-10T03:58:31;86.07;;;11.00;;
29026;SDS011;16120;48.608;9.092;2023-04-10T04:02:26;86.80;;;10.52;;
29026;SDS011;16120;48.608;9.092;2023-04-10T04:06:23;81.67;;;9.13;;
29026;SDS011;16120;48.608;9.092;2023-04-10T04:10:18;84.40;;;10.20;;
29026;SDS011;16120;48.608;9.092;2023-04-10T04:14:13;85.43;;;10.87;;
29026;SDS011;16120;48.608;9.092;2023-04-10T04:18:09;82.70;;;9.97;;
29026;SDS011;16120;48.608;9.092;2023-04-10T04:22:05;85.93;;;11.60;;
29026;SDS011;16120;48.608;9.092;2023-04-10T04:26:00;84.63;;;9.63;;
29026;SDS011;16120;48.608;9.092;2023-04-10T04:29:55;84.17;;;10.17;;
29026;SDS011;16120;48.608;9.092;2023-04-10T04:33:51;83.97;;;11.17;;
29026;SDS011;16120;48.608;9.092;2023-04-10T04:37:47;83.63;;;10.87;;
29026;SDS011;16120;48.608;9.092;2023-04-10T04:41:43;84.73;;;9.50;;
29026;SDS011;16120;48.608;9.092;2023-04-10T04:45:38;82.60;;;9.70;;
29026;SDS011;16120;48.608;9.092;2023-04-10T04:49:33;84.17;;;10.23;;
29026;SDS011;16120;48.608;9.092;2023-04-10T04:53:30;83.37;;;9.47;;
29026;SDS011;16120;48.608;9.092;2023-04-10T04:57:25;82.57;;;9.57;;
29026;SDS011;16120;48.608;9.092;2023-04-10T05:01:20;83.87;;;9.90;;
29026;SDS011;16120;48.608;9.092;2023-04-10T05:05:15;82.33;;;9.00;;
29026;SDS011;16120;48.608;9.092;2023-04-10T05:09:12;83.10;;;9.70;;
29026;SDS011;16120;48.608;9.092;2023-04-10T05:13:07;84.70;;;9.97;;
29026;SDS011;16120;48.608;9.092;2023-04-10T05:17:02;84.47;;;10.07;;
29026;SDS011;16120;48.608;9.092;2023-04-10T05:20:58;83.77;;;9.63;;
29026;SDS011;16120;48.608;9.092;2023-04-10T05:24:54;84.43;;;10.00;;
29026;SDS011;16120;48.608;9.092;2023-04-10T05:28:49;84.60;;;10.80;;
29026;SDS011;16120;48.608;9.092;2023-04-10T05:32:44;84.80;;;9.90;;
29026;SDS011;16120;48.608;9.092;2023-04-10T05:36:40;84.73;;;10.70;;
29026;SDS011;16120;48.608;9.092;2023-04-10T05:40:36;85.07;;;11.37;;
29026;SDS011;16120;48.608;9.092;2023-04-10T05:44:31;83.50;;;10.10;;
29026;SDS011;16120;48.608;9.092;2023-04-10T05:48:27;85.28;;;11.65;;
29026;SDS011;16120;48.608;9.092;2023-04-10T05:52:22;84.67;;;10.60;;
29026;SDS011;16120;48.608;9.092;2023-04-10T05:56:18;85.30;;;10.75;;
29026;SDS011;16120;48.608;9.092;2023-04-10T06:00:14;85.00;;;10.13;;
29026;SDS011;16120;48.608;9.092;2023-04-10T06:04:09;87.37;;;11.47;;
29026;SDS011;16120;48.608;9.092;2023-04-10T06:08:04;85.83;;;11.87;;
29026;SDS011;16120;48.608;9.092;2023-04-10T06:12:01;86.73;;;11.20;;
29026;SDS011;16120;48.608;9.092;2023-04-10T06:15:56;86.20;;;11.10;;
29026;SDS011;16120;48.608;9.092;2023-04-10T06:19:52;84.50;;;11.03;;
29026;SDS011;16120;48.608;9.092;2023-04-10T06:23:47;85.27;;;10.80;;
29026;SDS011;16120;48.608;9.092;2023-04-10T06:27:43;84.90;;;10.73;;
29026;SDS011;16120;48.608;9.092;2023-04-10T06:31:38;86.80;;;11.07;;
29026;SDS011;16120;48.608;9.092;2023-04-10T06:35:34;88.10;;;11.70;;
29026;SDS011;16120;48.608;9.092;2023-04-10T06:39:29;85.60;;;10.75;;
29026;SDS011;16120;48.608;9.092;2023-04-10T06:43:25;86.47;;;11.13;;
29026;SDS011;16120;48.608;9.092;2023-04-10T06:47:21;89.87;;;14.53;;
29026;SDS011;16120;48.608;9.092;2023-04-10T06:51:25;92.40;;;14.30;;
29026;SDS011;16120;48.608;9.092;2023-04-10T06:55:20;91.00;;;13.83;;
29026;SDS011;16120;48.608;9.092;2023-04-10T06:59:17;87.57;;;11.90;;
29026;SDS011;16120;48.608;9.092;2023-04-10T07:03:12;86.57;;;12.20;;
29026;SDS011;16120;48.608;9.092;2023-04-10T07:07:08;86.43;;;11.70;;
29026;SDS011;16120;48.608;9.092;2023-04-10T07:11:03;86.53;;;10.30;;
29026;SDS011;16120;48.608;9.092;2023-04-10T07:14:59;84.47;;;10.40;;
29026;SDS011;16120;48.608;9.092;2023-04-10T07:19:00;84.07;;;9.73;;
29026;SDS011;16120;48.608;9.092;2023-04-10T07:22:55;83.03;;;9.17;;
29026;SDS011;16120;48.608;9.092;2023-04-10T07:26:50;86.90;;;11.03;;
29026;SDS011;16120;48.608;9.092;2023-04-10T07:30:47;85.15;;;10.60;;
29026;SDS011;16120;48.608;9.092;2023-04-10T07:34:42;83.97;;;9.80;;
29026;SDS011;16120;48.608;9.092;2023-04-10T07:38:37;86.30;;;9.93;;
29026;SDS011;16120;48.608;9.092;2023-04-10T07:42:32;84.18;;;10.20;;
29026;SDS011;16120;48.608;9.092;2023-04-10T07:46:29;83.10;;;9.60;;
29026;SDS011;16120;48.608;9.092;2023-04-10T07:50:24;83.10;;;8.90;;
29026;SDS011;16120;48.608;9.092;2023-04-10T07:54:19;80.80;;;8.27;;
29026;SDS011;16120;48.608;9.092;2023-04-10T07:58:15;80.18;;;8.25;;
29026;SDS011;16120;48.608;9.092;2023-04-10T08:02:11;79.70;;;7.37;;
29026;SDS011;16120;48.608;9.092;2023-04-10T08:06:07;78.43;;;6.77;;
29026;SDS011;16120;48.608;9.092;2023-04-10T08:10:02;78.27;;;6.47;;
29026;SDS011;16120;48.608;9.092;2023-04-10T08:13:58;76.33;;;5.83;;
29026;SDS011;16120;48.608;9.092;2023-04-10T08:17:55;78.13;;;6.30;;
29026;SDS011;16120;48.608;9.092;2023-04-10T08:21:50;76.70;;;6.83;;
29026;SDS011;16120;48.608;9.092;2023-04-10T08:25:45;77.10;;;6.33;;
29026;SDS011;16120;48.608;9.092;2023-04-10T08:29:40;77.07;;;6.43;;
29026;SDS011;16120;48.608;9.092;2023-04-10T08:33:37;77.07;;;6.30;;
29026;SDS011;16120;48.608;9.092;2023-04-10T08:37:32;79.07;;;8.40;;
29026;SDS011;16120;48.608;9.092;2023-04-10T08:41:27;79.97;;;7.33;;
29026;SDS011;16120;48.608;9.092;2023-04-10T08:45:22;77.90;;;8.20;;
29026;SDS011;16120;48.608;9.092;2023-04-10T08:49:21;77.33;;;6.43;;
29026;SDS011;16120;48.608;9.092;2023-04-10T08:53:18;78.67;;;6.63;;
29026;SDS011;16120;48.608;9.092;2023-04-10T08:57:14;76.80;;;6.10;;
29026;SDS011;16120;48.608;9.092;2023-04-10T09:01:10;76.00;;;5.67;;
29026;SDS011;16120;48.608;9.092;2023-04-10T09:05:07;77.50;;;5.50;;
29026;SDS011;16120;48.608;9.092;2023-04-10T09:09:04;76.97;;;6.33;;
29026;SDS011;16120;48.608;9.092;2023-04-10T09:12:59;75.30;;;5.90;;
29026;SDS011;16120;48.608;9.092;2023-04-10T09:17:10;75.30;;;5.30;;
29026;SDS011;16120;48.608;9.092;2023-04-10T09:21:07;77.67;;;6.90;;
29026;SDS011;16120;48.608;9.092;2023-04-10T09:25:03;74.40;;;5.30;;
29026;SDS011;16120;48.608;9.092;2023-04-10T09:28:59;75.90;;;5.67;;
29026;SDS011;16120;48.608;9.092;2023-04-10T09:32:54;75.67;;;5.37;;
29026;SDS011;16120;48.608;9.092;2023-04-10T09:36:53;75.05;;;5.00;;
29026;SDS011;16120;48.608;9.092;2023-04-10T09:40:48;74.90;;;5.10;;
29026;SDS011;16120;48.608;9.092;2023-04-10T09:44:53;73.77;;;4.87;;
29026;SDS011;16120;48.608;9.092;2023-04-10T09:48:53;72.80;;;4.77;;
29026;SDS011;16120;48.608;9.092;2023-04-10T09:52:57;74.77;;;5.83;;
29026;SDS011;16120;48.608;9.092;2023-04-10T09:56:52;72.90;;;4.40;;
29026;SDS011;16120;48.608;9.092;2023-04-10T10:00:48;72.67;;;4.27;;
29026;SDS011;16120;48.608;9.092;2023-04-10T10:04:43;72.40;;;3.73;;
29026;SDS011;16120;48.608;9.092;2023-04-10T10:08:40;73.37;;;4.60;;
29026;SDS011;16120;48.608;9.092;2023-04-10T10:12:39;91.27;;;20.07;;
29026;SDS011;16120;48.608;9.092;2023-04-10T10:16:38;73.57;;;4.37;;
29026;SDS011;16120;48.608;9.092;2023-04-10T10:20:37;73.00;;;3.60;;
29026;SDS011;16120;48.608;9.092;2023-04-10T10:24:34;74.00;;;4.33;;
29026;SDS011;16120;48.608;9.092;2023-04-10T10:28:30;75.27;;;6.40;;
29026;SDS011;16120;48.608;9.092;2023-04-10T10:32:26;75.07;;;4.63;;
29026;SDS011;16120;48.608;9.092;2023-04-10T10:36:22;72.97;;;3.63;;
29026;SDS011;16120;48.608;9.092;2023-04-10T10:40:21;72.37;;;3.70;;
29026;SDS011;16120;48.608;9.092;2023-04-10T10:44:19;72.20;;;3.60;;
29026;SDS011;16120;48.608;9.092;2023-04-10T10:48:17;71.50;;;3.90;;
29026;SDS011;16120;48.608;9.092;2023-04-10T10:52:12;72.30;;;4.60;;
29026;SDS011;16120;48.608;9.092;2023-04-10T11:00:23;72.20;;;3.80;;
29026;SDS011;16120;48.608;9.092;2023-04-10T11:08:35;71.47;;;3.60;;
29026;SDS011;16120;48.608;9.092;2023-04-10T11:12:32;72.37;;;3.90;;
29026;SDS011;16120;48.608;9.092;2023-04-10T11:16:47;71.00;;;3.50;;
29026;SDS011;16120;48.608;9.092;2023-04-10T11:24:56;71.37;;;3.30;;
29026;SDS011;16120;48.608;9.092;2023-04-10T11:28:52;70.97;;;3.40;;
29026;SDS011;16120;48.608;9.092;2023-04-10T11:32:49;71.50;;;4.07;;
29026;SDS011;16120;48.608;9.092;2023-04-10T11:36:44;70.47;;;3.00;;
29026;SDS011;16120;48.608;9.092;2023-04-10T11:44:55;70.50;;;3.40;;
29026;SDS011;16120;48.608;9.092;2023-04-10T11:48:52;69.50;;;2.93;;
29026;SDS011;16120;48.608;9.092;2023-04-10T11:52:48;70.17;;;2.60;;
29026;SDS011;16120;48.608;9.092;2023-04-10T11:56:44;69.80;;;2.47;;
29026;SDS011;16120;48.608;9.092;2023-04-10T12:00:39;70.70;;;3.90;;
29026;SDS011;16120;48.608;9.092;2023-04-10T12:04:38;75.40;;;10.80;;
29026;SDS011;16120;48.608;9.092;2023-04-10T12:08:40;74.17;;;2.97;;
29026;SDS011;16120;48.608;9.092;2023-04-10T12:12:36;69.73;;;3.10;;
29026;SDS011;16120;48.608;9.092;2023-04-10T12:16:31;70.30;;;3.00;;
29026;SDS011;16120;48.608;9.092;2023-04-10T12:20:28;70.47;;;2.90;;
29026;SDS011;16120;48.608;9.092;2023-04-10T12:24:39;70.73;;;3.50;;
29026;SDS011;16120;48.608;9.092;2023-04-10T12:28:35;70.87;;;3.30;;
29026;SDS011;16120;48.608;9.092;2023-04-10T12:32:30;70.37;;;3.10;;
29026;SDS011;16120;48.608;9.092;2023-04-10T12:36:28;70.10;;;3.23;;
29026;SDS011;16120;48.608;9.092;2023-04-10T12:40:23;79.17;;;10.93;;
29026;SDS011;16120;48.608;9.092;2023-04-10T12:44:18;70.20;;;3.50;;
29026;SDS011;16120;48.608;9.092;2023-04-10T12:48:21;73.17;;;5.10;;
29026;SDS011;16120;48.608;9.092;2023-04-10T12:52:22;80.17;;;3.37;;
29026;SDS011;16120;48.608;9.092;2023-04-10T12:56:17;70.60;;;3.33;;
29026;SDS011;16120;48.608;9.092;2023-04-10T13:00:13;82.20;;;15.13;;
29026;SDS011;16120;48.608;9.092;2023-04-10T13:04:08;71.10;;;4.10;;
29026;SDS011;16120;48.608;9.092;2023-04-10T13:08:05;70.57;;;3.20;;
29026;SDS011;16120;48.608;9.092;2023-04-10T13:12:00;72.17;;;3.20;;
29026;SDS011;16120;48.608;9.092;2023-04-10T13:15:55;69.97;;;3.10;;
29026;SDS011;16120;48.608;9.092;2023-04-10T13:19:51;70.63;;;3.47;;
29026;SDS011;16120;48.608;9.092;2023-04-10T13:23:47;70.80;;;3.30;;
29026;SDS011;16120;48.608;9.092;2023-04-10T13:27:43;71.67;;;3.40;;
29026;SDS011;16120;48.608;9.092;2023-04-10T13:31:38;70.40;;;3.23;;
29026;SDS011;16120;48.608;9.092;2023-04-10T13:35:33;70.77;;;3.37;;
29026;SDS011;16120;48.608;9.092;2023-04-10T13:39:30;71.30;;;4.90;;
29026;SDS011;16120;48.608;9.092;2023-04-10T13:43:25;72.40;;;3.47;;
29026;SDS011;16120;48.608;9.092;2023-04-10T13:47:20;70.80;;;3.63;;
29026;SDS011;16120;48.608;9.092;2023-04-10T13:51:15;69.67;;;3.10;;
29026;SDS011;16120;48.608;9.092;2023-04-10T13:55:12;70.70;;;3.57;;
29026;SDS011;16120;48.608;9.092;2023-04-10T13:59:07;69.60;;;3.10;;
29026;SDS011;16120;48.608;9.092;2023-04-10T14:03:02;69.77;;;2.90;;
29026;SDS011;16120;48.608;9.092;2023-04-10T14:06:59;70.17;;;2.97;;
29026;SDS011;16120;48.608;9.092;2023-04-10T14:10:55;71.07;;;2.70;;
29026;SDS011;16120;48.608;9.092;2023-04-10T14:14:50;70.67;;;3.37;;
29026;SDS011;16120;48.608;9.092;2023-04-10T14:18:46;68.97;;;2.90;;
29026;SDS011;16120;48.608;9.092;2023-04-10T14:22:41;70.60;;;3.50;;
29026;SDS011;16120;48.608;9.092;2023-04-10T14:26:37;69.17;;;3.10;;
29026;SDS011;16120;48.608;9.092;2023-04-10T14:30:33;69.90;;;3.47;;
29026;SDS011;16120;48.608;9.092;2023-04-10T14:34:28;69.47;;;2.90;;
29026;SDS011;16120;48.608;9.092;2023-04-10T14:38:23;70.20;;;3.20;;
29026;SDS011;16120;48.608;9.092;2023-04-10T14:42:20;71.87;;;3.30;;
29026;SDS011;16120;48.608;9.092;2023-04-10T14:46:16;70.80;;;3.27;;
29026;SDS011;16120;48.608;9.092;2023-04-10T14:50:11;69.80;;;3.30;;
29026;SDS011;16120;48.608;9.092;2023-04-10T14:54:06;73.10;;;3.30;;
29026;SDS011;16120;48.608;9.092;2023-04-10T14:58:03;71.47;;;4.53;;
29026;SDS011;16120;48.608;9.092;2023-04-10T15:01:58;71.80;;;3.70;;
29026;SDS011;16120;48.608;9.092;2023-04-10T15:05:57;70.03;;;3.28;;
29026;SDS011;16120;48.608;9.092;2023-04-10T15:09:54;70.57;;;3.80;;
29026;SDS011;16120;48.608;9.092;2023-04-10T15:13:51;70.50;;;3.40;;
29026;SDS011;16120;48.608;9.092;2023-04-10T15:17:46;69.90;;;3.47;;
29026;SDS011;16120;48.608;9.092;2023-04-10T15:21:41;69.93;;;3.30;;
29026;SDS011;16120;48.608;9.092;2023-04-10T15:25:37;69.60;;;3.03;;
29026;SDS011;16120;48.608;9.092;2023-04-10T15:29:35;69.73;;;2.80;;
29026;SDS011;16120;48.608;9.092;2023-04-10T15:33:31;69.57;;;2.93;;
29026;SDS011;16120;48.608;9.092;2023-04-10T15:37:26;71.10;;;3.33;;
29026;SDS011;16120;48.608;9.092;2023-04-10T15:41:21;69.67;;;3.00;;
29026;SDS011;16120;48.608;9.092;2023-04-10T15:45:18;69.67;;;2.80;;
29026;SDS011;16120;48.608;9.092;2023-04-10T15:49:13;68.97;;;2.70;;
29026;SDS011;16120;48.608;9.092;2023-04-10T15:53:09;69.67;;;2.60;;
29026;SDS011;16120;48.608;9.092;2023-04-10T15:57:04;69.87;;;3.00;;
29026;SDS011;16120;48.608;9.092;2023-04-10T16:01:00;70.80;;;2.83;;
29026;SDS011;16120;48.608;9.092;2023-04-10T16:04:55;71.00;;;2.70;;
29026;SDS011;16120;48.608;9.092;2023-04-10T16:08:51;70.10;;;2.90;;
29026;SDS011;16120;48.608;9.092;2023-04-10T16:12:46;70.00;;;2.60;;
29026;SDS011;16120;48.608;9.092;2023-04-10T16:16:42;70.40;;;3.03;;
29026;SDS011;16120;48.608;9.092;2023-04-10T16:20:39;69.97;;;2.70;;
29026;SDS011;16120;48.608;9.092;2023-04-10T16:24:34;70.17;;;2.80;;
29026;SDS011;16120;48.608;9.092;2023-04-10T16:28:29;70.20;;;2.97;;
29026;SDS011;16120;48.608;9.092;2023-04-10T16:32:26;69.63;;;2.50;;
29026;SDS011;16120;48.608;9.092;2023-04-10T16:36:21;69.90;;;2.70;;
29026;SDS011;16120;48.608;9.092;2023-04-10T16:40:16;70.67;;;2.80;;
29026;SDS011;16120;48.608;9.092;2023-04-10T16:44:11;70.25;;;2.75;;
29026;SDS011;16120;48.608;9.092;2023-04-10T16:48:08;72.43;;;3.07;;
29026;SDS011;16120;48.608;9.092;2023-04-10T16:52:03;70.97;;;3.30;;
29026;SDS011;16120;48.608;9.092;2023-04-10T16:55:58;71.00;;;2.63;;
29026;SDS011;16120;48.608;9.092;2023-04-10T16:59:54;70.37;;;2.70;;
29026;SDS011;16120;48.608;9.092;2023-04-10T17:03:51;71.70;;;3.20;;
29026;SDS011;16120;48.608;9.092;2023-04-10T17:07:47;70.47;;;2.70;;
29026;SDS011;16120;48.608;9.092;2023-04-10T17:11:42;70.97;;;2.90;;
29026;SDS011;16120;48.608;9.092;2023-04-10T17:15:37;70.47;;;2.60;;
29026;SDS011;16120;48.608;9.092;2023-04-10T17:19:33;70.67;;;2.53;;
29026;SDS011;16120;48.608;9.092;2023-04-10T17:23:29;70.87;;;2.60;;
29026;SDS011;16120;48.608;9.092;2023-04-10T17:27:24;72.03;;;2.93;;
29026;SDS011;16120;48.608;9.092;2023-04-10T17:31:19;71.10;;;2.57;;
29026;SDS011;16120;48.608;9.092;2023-04-10T17:35:16;74.20;;;2.93;;
29026;SDS011;16120;48.608;9.092;2023-04-10T17:39:11;72.17;;;2.93;;
29026;SDS011;16120;48.608;9.092;2023-04-10T17:43:06;72.60;;;3.00;;
29026;SDS011;16120;48.608;9.092;2023-04-10T17:47:01;71.38;;;2.70;;
29026;SDS011;16120;48.608;9.092;2023-04-10T17:50:59;71.43;;;2.93;;
29026;SDS011;16120;48.608;9.092;2023-04-10T17:54:58;72.30;;;3.10;;
29026;SDS011;16120;48.608;9.092;2023-04-10T17:58:53;72.37;;;3.00;;
29026;SDS011;16120;48.608;9.092;2023-04-10T18:02:48;72.27;;;3.03;;
29026;SDS011;16120;48.608;9.092;2023-04-10T18:06:45;72.77;;;3.10;;
29026;SDS011;16120;48.608;9.092;2023-04-10T18:10:40;72.17;;;2.90;;
29026;SDS011;16120;48.608;9.092;2023-04-10T18:14:35;73.10;;;2.80;;
29026;SDS011;16120;48.608;9.092;2023-04-10T18:18:32;73.70;;;3.63;;
29026;SDS011;16120;48.608;9.092;2023-04-10T18:22:28;73.60;;;3.10;;
29026;SDS011;16120;48.608;9.092;2023-04-10T18:26:23;72.67;;;3.13;;
29026;SDS011;16120;48.608;9.092;2023-04-10T18:30:19;74.90;;;4.15;;
29026;SDS011;16120;48.608;9.092;2023-04-10T18:34:14;76.07;;;3.50;;
29026;SDS011;16120;48.608;9.092;2023-04-10T18:38:11;73.67;;;3.10;;
29026;SDS011;16120;48.608;9.092;2023-04-10T18:42:07;72.27;;;3.03;;
29026;SDS011;16120;48.608;9.092;2023-04-10T18:46:03;72.80;;;3.20;;
29026;SDS011;16120;48.608;9.092;2023-04-10T18:49:58;72.57;;;2.83;;
29026;SDS011;16120;48.608;9.092;2023-04-10T18:53:54;78.57;;;3.50;;
29026;SDS011;16120;48.608;9.092;2023-04-10T18:57:50;74.77;;;3.00;;
29026;SDS011;16120;48.608;9.092;2023-04-10T19:01:45;73.00;;;3.10;;
29026;SDS011;16120;48.608;9.092;2023-04-10T19:05:40;73.07;;;2.97;;
29026;SDS011;16120;48.608;9.092;2023-04-10T19:09:37;72.57;;;3.10;;
29026;SDS011;16120;48.608;9.092;2023-04-10T19:13:32;73.90;;;3.37;;
29026;SDS011;16120;48.608;9.092;2023-04-10T19:17:27;73.83;;;3.30;;
29026;SDS011;16120;48.608;9.092;2023-04-10T19:21:22;73.83;;;3.40;;
29026;SDS011;16120;48.608;9.092;2023-04-10T19:25:19;72.87;;;3.20;;
29026;SDS011;16120;48.608;9.092;2023-04-10T19:29:14;74.07;;;3.90;;
29026;SDS011;16120;48.608;9.092;2023-04-10T19:33:09;74.10;;;3.63;;
29026;SDS011;16120;48.608;9.092;2023-04-10T19:37:05;76.57;;;3.83;;
29026;SDS011;16120;48.608;9.092;2023-04-10T19:41:04;74.40;;;4.13;;
29026;SDS011;16120;48.608;9.092;2023-04-10T19:45:09;74.70;;;3.90;;
29026;SDS011;16120;48.608;9.092;2023-04-10T19:49:05;75.27;;;3.47;;
29026;SDS011;16120;48.608;9.092;2023-04-10T19:53:00;75.13;;;3.90;;
29026;SDS011;16120;48.608;9.092;2023-04-10T19:56:57;74.67;;;3.60;;
29026;SDS011;16120;48.608;9.092;2023-04-10T20:00:54;74.47;;;3.63;;
29026;SDS011;16120;48.608;9.092;2023-04-10T20:04:49;75.07;;;4.00;;
29026;SDS011;16120;48.608;9.092;2023-04-10T20:08:45;76.73;;;4.00;;
29026;SDS011;16120;48.608;9.092;2023-04-10T20:12:42;78.93;;;4.20;;
29026;SDS011;16120;48.608;9.092;2023-04-10T20:16:38;75.37;;;3.60;;
29026;SDS011;16120;48.608;9.092;2023-04-10T20:20:33;75.90;;;4.60;;
29026;SDS011;16120;48.608;9.092;2023-04-10T20:24:28;74.30;;;3.90;;
29026;SDS011;16120;48.608;9.092;2023-04-10T20:28:25;75.97;;;4.72;;
29026;SDS011;16120;48.608;9.092;2023-04-10T20:32:20;76.00;;;4.50;;
29026;SDS011;16120;48.608;9.092;2023-04-10T20:36:15;75.77;;;5.00;;
29026;SDS011;16120;48.608;9.092;2023-04-10T20:40:10;75.80;;;4.93;;
29026;SDS011;16120;48.608;9.092;2023-04-10T20:44:07;77.10;;;4.90;;
29026;SDS011;16120;48.608;9.092;2023-04-10T20:48:02;74.93;;;4.97;;
29026;SDS011;16120;48.608;9.092;2023-04-10T20:51:57;75.60;;;5.00;;
29026;SDS011;16120;48.608;9.092;2023-04-10T20:55:53;75.80;;;4.70;;
29026;SDS011;16120;48.608;9.092;2023-04-10T20:59:50;79.17;;;4.87;;
29026;SDS011;16120;48.608;9.092;2023-04-10T21:03:45;75.97;;;5.00;;
29026;SDS011;16120;48.608;9.092;2023-04-10T21:07:40;76.30;;;5.23;;
29026;SDS011;16120;48.608;9.092;2023-04-10T21:11:35;74.77;;;5.00;;
29026;SDS011;16120;48.608;9.092;2023-04-10T21:15:32;75.13;;;4.87;;
29026;SDS011;16120;48.608;9.092;2023-04-10T21:19:27;78.17;;;5.30;;
29026;SDS011;16120;48.608;9.092;2023-04-10T21:23:22;75.57;;;4.70;;
29026;SDS011;16120;48.608;9.092;2023-04-10T21:27:18;75.10;;;4.50;;
29026;SDS011;16120;48.608;9.092;2023-04-10T21:31:14;75.00;;;4.90;;
29026;SDS011;16120;48.608;9.092;2023-04-10T21:35:09;74.80;;;4.50;;
29026;SDS011;16120;48.608;9.092;2023-04-10T21:39:05;77.80;;;4.90;;
29026;SDS011;16120;48.608;9.092;2023-04-10T21:43:05;78.25;;;4.97;;
29026;SDS011;16120;48.608;9.092;2023-04-10T21:47:01;75.60;;;4.90;;
29026;SDS011;16120;48.608;9.092;2023-04-10T21:50:56;76.13;;;4.83;;
29026;SDS011;16120;48.608;9.092;2023-04-10T21:54:52;76.35;;;4.90;;
29026;SDS011;16120;48.608;9.092;2023-04-10T21:58:47;75.97;;;4.93;;
29026;SDS011;16120;48.608;9.092;2023-04-10T22:02:43;75.17;;;4.70;;
29026;SDS011;16120;48.608;9.092;2023-04-10T22:06:39;75.17;;;4.47;;
29026;SDS011;16120;48.608;9.092;2023-04-10T22:10:34;75.87;;;4.30;;
29026;SDS011;16120;48.608;9.092;2023-04-10T22:14:29;77.87;;;4.33;;
29026;SDS011;16120;48.608;9.092;2023-04-10T22:18:26;75.77;;;4.27;;
29026;SDS011;16120;48.608;9.092;2023-04-10T22:22:21;75.37;;;4.40;;
29026;SDS011;16120;48.608;9.092;2023-04-10T22:26:16;75.53;;;4.30;;
29026;SDS011;16120;48.608;9.092;2023-04-10T22:30:11;74.80;;;4.10;;
29026;SDS011;16120;48.608;9.092;2023-04-10T22:34:08;75.00;;;4.63;;
29026;SDS011;16120;48.608;9.092;2023-04-10T22:38:03;75.10;;;4.60;;
29026;SDS011;16120;48.608;9.092;2023-04-10T22:41:59;74.77;;;4.27;;
29026;SDS011;16120;48.608;9.092;2023-04-10T22:45:54;75.00;;;4.45;;
29026;SDS011;16120;48.608;9.092;2023-04-10T22:49:50;76.40;;;4.93;;
29026;SDS011;16120;48.608;9.092;2023-04-10T22:53:45;75.07;;;3.80;;
29026;SDS011;16120;48.608;9.092;2023-04-10T22:57:41;75.90;;;3.90;;
29026;SDS011;16120;48.608;9.092;2023-04-10T23:01:36;74.93;;;4.10;;
29026;SDS011;16120;48.608;9.092;2023-04-10T23:05:32;75.37;;;3.83;;
29026;SDS011;16120;48.608;9.092;2023-04-10T23:09:28;77.57;;;4.00;;
29026;SDS011;16120;48.608;9.092;2023-04-10T23:13:23;74.73;;;3.77;;
29026;SDS011;16120;48.608;9.092;2023-04-10T23:17:18;75.73;;;3.80;;
29026;SDS011;16120;48.608;9.092;2023-04-10T23:21:15;74.70;;;3.90;;
29026;SDS011;16120;48.608;9.092;2023-04-10T23:25:10;75.90;;;4.60;;
29026;SDS011;16120;48.608;9.092;2023-04-10T23:29:05;76.33;;;4.40;;
29026;SDS011;16120;48.608;9.092;2023-04-10T23:33:00;78.03;;;3.90;;